sensor_id;sensor_type;location;lat;lon;timestamp;pressure;altitude;pressure_sealevel;temperature;humidity
66880;BME280;53789;51.392;10.234;2022-12-10T00:00:04;97255.13;;;0.12;81.98
66880;BME280;53789;51.392;10.234;2022-12-10T00:00:25;97257.81;;;0.12;81.68
66880;BME280;53789;51.392;10.234;2022-12-10T00:00:45;97264.88;;;0.13;81.31
66880;BME280;53789;51.392;10.234;2022-12-10T00:01:11;97262.16;;;0.13;81.49
66880;BME280;53789;51.392;10.234;2022-12-10T00:01:33;97261.09;;;0.14;81.39
66880;BME280;53789;51.392;10.234;2022-12-10T00:01:54;97262.69;;;0.15;82.50
66880;BME280;53789;51.392;10.234;2022-12-10T00:02:14;97266.50;;;0.14;82.34
66880;BME280;53789;51.392;10.234;2022-12-10T00:02:34;97255.69;;;0.14;81.27
66880;BME280;53789;51.392;10.234;2022-12-10T00:02:55;97266.50;;;0.14;81.34
66880;BME280;53789;51.392;10.234;2022-12-10T00:03:15;97257.56;;;0.14;82.50
66880;BME280;53789;51.392;10.234;2022-12-10T00:03:36;97255.69;;;0.14;82.87
66880;BME280;53789;51.392;10.234;2022-12-10T00:03:57;97262.16;;;0.13;81.57
66880;BME280;53789;51.392;10.234;2022-12-10T00:04:19;97261.09;;;0.14;81.22
66880;BME280;53789;51.392;10.234;2022-12-10T00:04:39;97257.28;;;0.15;81.54
66880;BME280;53789;51.392;10.234;2022-12-10T00:04:59;97262.69;;;0.15;82.07
66880;BME280;53789;51.392;10.234;2022-12-10T00:05:20;97256.50;;;0.15;81.61
66880;BME280;53789;51.392;10.234;2022-12-10T00:05:40;97257.28;;;0.15;82.58
66880;BME280;53789;51.392;10.234;2022-12-10T00:06:06;97258.41;;;0.14;82.04
66880;BME280;53789;51.392;10.234;2022-12-10T00:06:29;97259.19;;;0.15;81.70
66880;BME280;53789;51.392;10.234;2022-12-10T00:06:50;97258.13;;;0.16;82.68
66880;BME280;53789;51.392;10.234;2022-12-10T00:07:10;97262.69;;;0.15;82.20
66880;BME280;53789;51.392;10.234;2022-12-10T00:07:31;97261.63;;;0.16;81.70
66880;BME280;53789;51.392;10.234;2022-12-10T00:07:51;97256.50;;;0.15;81.83
66880;BME280;53789;51.392;10.234;2022-12-10T00:08:11;97255.69;;;0.14;81.58
66880;BME280;53789;51.392;10.234;2022-12-10T00:08:33;97255.69;;;0.14;81.41
66880;BME280;53789;51.392;10.234;2022-12-10T00:08:54;97257.56;;;0.14;82.52
66880;BME280;53789;51.392;10.234;2022-12-10T00:09:17;97256.75;;;0.13;82.84
66880;BME280;53789;51.392;10.234;2022-12-10T00:09:38;97258.91;;;0.11;82.70
66880;BME280;53789;51.392;10.234;2022-12-10T00:09:58;97255.13;;;0.12;82.10
66880;BME280;53789;51.392;10.234;2022-12-10T00:10:18;97252.41;;;0.12;81.60
66880;BME280;53789;51.392;10.234;2022-12-10T00:10:40;97257.03;;;0.12;82.13
66880;BME280;53789;51.392;10.234;2022-12-10T00:11:03;97258.09;;;0.11;82.86
66880;BME280;53789;51.392;10.234;2022-12-10T00:11:24;97258.66;;;0.13;83.03
66880;BME280;53789;51.392;10.234;2022-12-10T00:11:44;97261.34;;;0.13;82.98
66880;BME280;53789;51.392;10.234;2022-12-10T00:12:04;97255.94;;;0.13;81.96
66880;BME280;53789;51.392;10.234;2022-12-10T00:12:25;97260.25;;;0.14;82.01
66880;BME280;53789;51.392;10.234;2022-12-10T00:12:45;97256.75;;;0.13;82.98
66880;BME280;53789;51.392;10.234;2022-12-10T00:13:05;97254.84;;;0.14;82.05
66880;BME280;53789;51.392;10.234;2022-12-10T00:13:26;97251.88;;;0.15;81.45
66880;BME280;53789;51.392;10.234;2022-12-10T00:13:48;97253.78;;;0.15;82.18
66880;BME280;53789;51.392;10.234;2022-12-10T00:14:10;97256.50;;;0.15;81.70
66880;BME280;53789;51.392;10.234;2022-12-10T00:14:30;97251.09;;;0.15;81.67
66880;BME280;53789;51.392;10.234;2022-12-10T00:14:51;97254.59;;;0.15;81.96
66880;BME280;53789;51.392;10.234;2022-12-10T00:15:11;97261.63;;;0.16;82.42
66880;BME280;53789;51.392;10.234;2022-12-10T00:15:34;97259.72;;;0.17;82.57
66880;BME280;53789;51.392;10.234;2022-12-10T00:15:55;97259.72;;;0.17;82.61
66880;BME280;53789;51.392;10.234;2022-12-10T00:16:18;97265.97;;;0.17;82.20
66880;BME280;53789;51.392;10.234;2022-12-10T00:16:39;97258.13;;;0.16;82.76
66880;BME280;53789;51.392;10.234;2022-12-10T00:17:00;97257.03;;;0.17;82.44
66880;BME280;53789;51.392;10.234;2022-12-10T00:17:20;97260.56;;;0.17;81.74
66880;BME280;53789;51.392;10.234;2022-12-10T00:17:40;97261.38;;;0.18;82.35
66880;BME280;53789;51.392;10.234;2022-12-10T00:18:01;97252.19;;;0.19;82.58
66880;BME280;53789;51.392;10.234;2022-12-10T00:18:21;97269.22;;;0.19;83.03
66880;BME280;53789;51.392;10.234;2022-12-10T00:18:41;97259.25;;;0.20;81.77
66880;BME280;53789;51.392;10.234;2022-12-10T00:19:02;97261.94;;;0.20;82.69
66880;BME280;53789;51.392;10.234;2022-12-10T00:19:23;97261.09;;;0.19;82.17
66880;BME280;53789;51.392;10.234;2022-12-10T00:19:43;97249.22;;;0.20;81.75
66880;BME280;53789;51.392;10.234;2022-12-10T00:20:04;97257.88;;;0.22;82.25
66880;BME280;53789;51.392;10.234;2022-12-10T00:20:24;97262.22;;;0.23;81.42
66880;BME280;53789;51.392;10.234;2022-12-10T00:20:44;97260.31;;;0.24;82.58
66880;BME280;53789;51.392;10.234;2022-12-10T00:21:07;97265.72;;;0.24;81.60
66880;BME280;53789;51.392;10.234;2022-12-10T00:21:33;97258.72;;;0.23;81.82
66880;BME280;53789;51.392;10.234;2022-12-10T00:21:54;97257.59;;;0.24;82.70
66880;BME280;53789;51.392;10.234;2022-12-10T00:22:14;97269.53;;;0.23;81.65
66880;BME280;53789;51.392;10.234;2022-12-10T00:22:35;97254.91;;;0.24;81.33
66880;BME280;53789;51.392;10.234;2022-12-10T00:22:55;97259.50;;;0.23;81.50
66880;BME280;53789;51.392;10.234;2022-12-10T00:23:16;97259.50;;;0.23;81.65
66880;BME280;53789;51.392;10.234;2022-12-10T00:23:37;97263.03;;;0.24;81.93
66880;BME280;53789;51.392;10.234;2022-12-10T00:23:58;97261.16;;;0.25;81.24
66880;BME280;53789;51.392;10.234;2022-12-10T00:24:18;97259.50;;;0.23;81.90
66880;BME280;53789;51.392;10.234;2022-12-10T00:24:38;97259.50;;;0.23;81.54
66880;BME280;53789;51.392;10.234;2022-12-10T00:24:59;97260.56;;;0.22;81.71
66880;BME280;53789;51.392;10.234;2022-12-10T00:25:19;97261.41;;;0.23;81.97
66880;BME280;53789;51.392;10.234;2022-12-10T00:25:39;97266.00;;;0.22;82.31
66880;BME280;53789;51.392;10.234;2022-12-10T00:26:09;97261.69;;;0.21;81.58
66880;BME280;53789;51.392;10.234;2022-12-10T00:26:32;97257.06;;;0.22;82.92
66880;BME280;53789;51.392;10.234;2022-12-10T00:26:54;97260.03;;;0.20;81.45
66880;BME280;53789;51.392;10.234;2022-12-10T00:27:14;97265.19;;;0.22;82.48
66880;BME280;53789;51.392;10.234;2022-12-10T00:27:34;97257.34;;;0.20;82.70
66880;BME280;53789;51.392;10.234;2022-12-10T00:27:55;97255.44;;;0.21;81.95
66880;BME280;53789;51.392;10.234;2022-12-10T00:28:15;97259.25;;;0.20;81.45
66880;BME280;53789;51.392;10.234;2022-12-10T00:28:35;97259.25;;;0.20;81.23
66880;BME280;53789;51.392;10.234;2022-12-10T00:28:56;97255.69;;;0.19;82.15
66880;BME280;53789;51.392;10.234;2022-12-10T00:29:17;97255.69;;;0.19;82.20
66880;BME280;53789;51.392;10.234;2022-12-10T00:29:37;97263.81;;;0.19;81.59
66880;BME280;53789;51.392;10.234;2022-12-10T00:29:57;97255.97;;;0.18;82.12
66880;BME280;53789;51.392;10.234;2022-12-10T00:30:18;97262.44;;;0.17;82.04
66880;BME280;53789;51.392;10.234;2022-12-10T00:30:38;97256.22;;;0.16;82.22
66880;BME280;53789;51.392;10.234;2022-12-10T00:31:03;97258.13;;;0.16;81.62
66880;BME280;53789;51.392;10.234;2022-12-10T00:31:27;97250.28;;;0.14;82.33
66880;BME280;53789;51.392;10.234;2022-12-10T00:31:48;97255.69;;;0.14;82.88
66880;BME280;53789;51.392;10.234;2022-12-10T00:32:08;97261.09;;;0.14;81.87
66880;BME280;53789;51.392;10.234;2022-12-10T00:32:29;97252.41;;;0.12;82.24
66880;BME280;53789;51.392;10.234;2022-12-10T00:32:49;97261.09;;;0.14;82.68
66880;BME280;53789;51.392;10.234;2022-12-10T00:33:09;97259.47;;;0.13;82.94
66880;BME280;53789;51.392;10.234;2022-12-10T00:33:30;97253.25;;;0.13;82.97
66880;BME280;53789;51.392;10.234;2022-12-10T00:33:52;97248.66;;;0.13;82.65
66880;BME280;53789;51.392;10.234;2022-12-10T00:34:13;97254.84;;;0.14;82.48
66880;BME280;53789;51.392;10.234;2022-12-10T00:34:33;97255.13;;;0.12;83.18
66880;BME280;53789;51.392;10.234;2022-12-10T00:34:53;97253.25;;;0.13;82.20
66880;BME280;53789;51.392;10.234;2022-12-10T00:35:14;97250.81;;;0.11;82.70
66880;BME280;53789;51.392;10.234;2022-12-10T00:35:35;97261.34;;;0.13;81.81
66880;BME280;53789;51.392;10.234;2022-12-10T00:35:56;97252.41;;;0.12;82.24
66880;BME280;53789;51.392;10.234;2022-12-10T00:36:20;97263.22;;;0.12;81.91
66880;BME280;53789;51.392;10.234;2022-12-10T00:36:44;97253.78;;;0.10;82.99
66880;BME280;53789;51.392;10.234;2022-12-10T00:37:04;97257.03;;;0.12;82.21
66880;BME280;53789;51.392;10.234;2022-12-10T00:37:24;97253.50;;;0.11;82.88
66880;BME280;53789;51.392;10.234;2022-12-10T00:37:45;97261.63;;;0.11;82.74
66880;BME280;53789;51.392;10.234;2022-12-10T00:38:05;97257.56;;;0.09;82.19
66880;BME280;53789;51.392;10.234;2022-12-10T00:38:25;97254.03;;;0.08;82.09
66880;BME280;53789;51.392;10.234;2022-12-10T00:38:46;97256.75;;;0.08;81.76
66880;BME280;53789;51.392;10.234;2022-12-10T00:39:07;97254.03;;;0.08;82.96
66880;BME280;53789;51.392;10.234;2022-12-10T00:39:27;97257.81;;;0.07;82.64
66880;BME280;53789;51.392;10.234;2022-12-10T00:39:48;97254.28;;;0.07;82.32
66880;BME280;53789;51.392;10.234;2022-12-10T00:40:09;97254.84;;;0.09;82.49
66880;BME280;53789;51.392;10.234;2022-12-10T00:40:29;97254.28;;;0.07;82.45
66880;BME280;53789;51.392;10.234;2022-12-10T00:40:49;97248.88;;;0.07;82.79
66880;BME280;53789;51.392;10.234;2022-12-10T00:41:11;97255.38;;;0.05;82.71
66880;BME280;53789;51.392;10.234;2022-12-10T00:41:31;97246.44;;;0.05;82.44
66880;BME280;53789;51.392;10.234;2022-12-10T00:41:52;97257.25;;;0.05;82.79
66880;BME280;53789;51.392;10.234;2022-12-10T00:42:12;97252.94;;;0.04;83.07
66880;BME280;53789;51.392;10.234;2022-12-10T00:42:32;97254.53;;;0.05;82.86
66880;BME280;53789;51.392;10.234;2022-12-10T00:42:53;97249.97;;;0.05;81.95
66880;BME280;53789;51.392;10.234;2022-12-10T00:43:13;97253.47;;;0.06;82.56
66880;BME280;53789;51.392;10.234;2022-12-10T00:43:34;97248.06;;;0.06;82.26
66880;BME280;53789;51.392;10.234;2022-12-10T00:43:54;97253.47;;;0.06;81.80
66880;BME280;53789;51.392;10.234;2022-12-10T00:44:15;97249.97;;;0.05;82.49
66880;BME280;53789;51.392;10.234;2022-12-10T00:44:36;97248.06;;;0.06;81.95
66880;BME280;53789;51.392;10.234;2022-12-10T00:44:56;97250.75;;;0.06;83.04
66880;BME280;53789;51.392;10.234;2022-12-10T00:45:17;97239.94;;;0.06;82.33
66880;BME280;53789;51.392;10.234;2022-12-10T00:45:38;97247.00;;;0.07;82.57
66880;BME280;53789;51.392;10.234;2022-12-10T00:45:58;97252.41;;;0.07;82.95
66880;BME280;53789;51.392;10.234;2022-12-10T00:46:19;97247.00;;;0.07;82.14
66880;BME280;53789;51.392;10.234;2022-12-10T00:46:40;97254.03;;;0.08;82.69
66880;BME280;53789;51.392;10.234;2022-12-10T00:47:00;97252.94;;;0.09;82.69
66880;BME280;53789;51.392;10.234;2022-12-10T00:47:20;97255.66;;;0.09;82.73
66880;BME280;53789;51.392;10.234;2022-12-10T00:47:41;97252.94;;;0.09;83.33
66880;BME280;53789;51.392;10.234;2022-12-10T00:48:01;97252.94;;;0.09;82.14
66880;BME280;53789;51.392;10.234;2022-12-10T00:48:21;97254.56;;;0.10;81.86
66880;BME280;53789;51.392;10.234;2022-12-10T00:48:42;97256.22;;;0.11;82.59
66880;BME280;53789;51.392;10.234;2022-12-10T00:49:03;97252.94;;;0.09;82.83
66880;BME280;53789;51.392;10.234;2022-12-10T00:49:23;97252.13;;;0.09;81.38
66880;BME280;53789;51.392;10.234;2022-12-10T00:49:43;97253.22;;;0.08;81.67
66880;BME280;53789;51.392;10.234;2022-12-10T00:50:04;97249.44;;;0.09;81.99
66880;BME280;53789;51.392;10.234;2022-12-10T00:50:24;97251.34;;;0.08;83.13
66880;BME280;53789;51.392;10.234;2022-12-10T00:51:04;97252.94;;;0.09;82.40
66880;BME280;53789;51.392;10.234;2022-12-10T00:51:27;97256.47;;;0.10;83.16
66880;BME280;53789;51.392;10.234;2022-12-10T00:51:47;97260.78;;;0.11;83.17
66880;BME280;53789;51.392;10.234;2022-12-10T00:52:07;97252.13;;;0.09;82.01
66880;BME280;53789;51.392;10.234;2022-12-10T00:52:28;97250.25;;;0.09;82.61
66880;BME280;53789;51.392;10.234;2022-12-10T00:52:48;97258.34;;;0.09;82.91
66880;BME280;53789;51.392;10.234;2022-12-10T00:53:08;97262.44;;;0.12;82.62
66880;BME280;53789;51.392;10.234;2022-12-10T00:53:31;97260.53;;;0.12;82.37
66880;BME280;53789;51.392;10.234;2022-12-10T00:53:54;97255.94;;;0.13;81.78
66880;BME280;53789;51.392;10.234;2022-12-10T00:54:14;97257.81;;;0.12;81.97
66880;BME280;53789;51.392;10.234;2022-12-10T00:54:35;97257.81;;;0.12;81.91
66880;BME280;53789;51.392;10.234;2022-12-10T00:54:55;97257.81;;;0.12;81.98
66880;BME280;53789;51.392;10.234;2022-12-10T00:55:15;97260.25;;;0.14;82.52
66880;BME280;53789;51.392;10.234;2022-12-10T00:55:36;97255.69;;;0.14;82.86
66880;BME280;53789;51.392;10.234;2022-12-10T00:55:57;97255.69;;;0.14;82.38
66880;BME280;53789;51.392;10.234;2022-12-10T00:56:21;97258.13;;;0.16;82.45
66880;BME280;53789;51.392;10.234;2022-12-10T00:56:42;97257.28;;;0.15;82.99
66880;BME280;53789;51.392;10.234;2022-12-10T00:57:02;97260.84;;;0.16;82.02
66880;BME280;53789;51.392;10.234;2022-12-10T00:57:23;97255.97;;;0.18;82.12
66880;BME280;53789;51.392;10.234;2022-12-10T00:57:43;97255.16;;;0.17;82.14
66880;BME280;53789;51.392;10.234;2022-12-10T00:58:03;97254.06;;;0.18;82.81
66880;BME280;53789;51.392;10.234;2022-12-10T00:58:27;97260.31;;;0.19;83.07
66880;BME280;53789;51.392;10.234;2022-12-10T00:58:49;97257.59;;;0.19;82.87
66880;BME280;53789;51.392;10.234;2022-12-10T00:59:09;97258.41;;;0.19;81.88
66880;BME280;53789;51.392;10.234;2022-12-10T00:59:30;97269.22;;;0.19;81.88
66880;BME280;53789;51.392;10.234;2022-12-10T00:59:50;97264.66;;;0.20;82.25
66880;BME280;53789;51.392;10.234;2022-12-10T01:00:11;97265.44;;;0.20;82.17
66880;BME280;53789;51.392;10.234;2022-12-10T01:00:31;97258.41;;;0.19;82.92
66880;BME280;53789;51.392;10.234;2022-12-10T01:00:51;97269.78;;;0.21;82.70
66880;BME280;53789;51.392;10.234;2022-12-10T01:01:42;97268.44;;;0.24;82.73
66880;BME280;53789;51.392;10.234;2022-12-10T01:02:02;97268.44;;;0.24;82.44
66880;BME280;53789;51.392;10.234;2022-12-10T01:02:23;97265.72;;;0.24;81.79
66880;BME280;53789;51.392;10.234;2022-12-10T01:02:43;97259.25;;;0.25;83.14
66880;BME280;53789;51.392;10.234;2022-12-10T01:03:03;97269.81;;;0.27;82.10
66880;BME280;53789;51.392;10.234;2022-12-10T01:03:23;97267.91;;;0.27;82.10
66880;BME280;53789;51.392;10.234;2022-12-10T01:03:45;97268.72;;;0.28;82.64
66880;BME280;53789;51.392;10.234;2022-12-10T01:04:09;97272.25;;;0.28;82.19
66880;BME280;53789;51.392;10.234;2022-12-10T01:04:30;97266.03;;;0.28;81.71
66880;BME280;53789;51.392;10.234;2022-12-10T01:04:54;97266.03;;;0.28;82.46
66880;BME280;53789;51.392;10.234;2022-12-10T01:05:14;97262.50;;;0.27;81.55
66880;BME280;53789;51.392;10.234;2022-12-10T01:05:34;97263.31;;;0.28;82.03
66880;BME280;53789;51.392;10.234;2022-12-10T01:05:55;97269.81;;;0.27;81.78
66880;BME280;53789;51.392;10.234;2022-12-10T01:06:19;97261.69;;;0.27;81.87
66880;BME280;53789;51.392;10.234;2022-12-10T01:06:49;97262.75;;;0.26;81.28
66880;BME280;53789;51.392;10.234;2022-12-10T01:07:10;97266.28;;;0.26;81.93
66880;BME280;53789;51.392;10.234;2022-12-10T01:07:30;97270.06;;;0.25;81.79
66880;BME280;53789;51.392;10.234;2022-12-10T01:07:50;97266.56;;;0.25;81.80
66880;BME280;53789;51.392;10.234;2022-12-10T01:08:11;97262.22;;;0.23;81.26
66880;BME280;53789;51.392;10.234;2022-12-10T01:08:31;97267.63;;;0.23;82.46
66880;BME280;53789;51.392;10.234;2022-12-10T01:08:55;97266.00;;;0.22;82.19
66880;BME280;53789;51.392;10.234;2022-12-10T01:09:19;97267.88;;;0.22;81.85
66880;BME280;53789;51.392;10.234;2022-12-10T01:09:39;97268.97;;;0.21;81.43
66880;BME280;53789;51.392;10.234;2022-12-10T01:10:00;97266.25;;;0.21;81.64
66880;BME280;53789;51.392;10.234;2022-12-10T01:10:20;97269.78;;;0.21;82.30
66880;BME280;53789;51.392;10.234;2022-12-10T01:10:40;97261.94;;;0.20;81.04
66880;BME280;53789;51.392;10.234;2022-12-10T01:11:01;97269.22;;;0.19;81.50
66880;BME280;53789;51.392;10.234;2022-12-10T01:11:25;97267.34;;;0.20;81.32
66880;BME280;53789;51.392;10.234;2022-12-10T01:11:48;97262.19;;;0.18;81.35
66880;BME280;53789;51.392;10.234;2022-12-10T01:12:08;97270.28;;;0.18;82.17
66880;BME280;53789;51.392;10.234;2022-12-10T01:12:29;97279.22;;;0.19;81.12
66880;BME280;53789;51.392;10.234;2022-12-10T01:12:49;97268.41;;;0.19;81.70
66880;BME280;53789;51.392;10.234;2022-12-10T01:13:09;97265.72;;;0.19;81.11
66880;BME280;53789;51.392;10.234;2022-12-10T01:13:30;97268.41;;;0.19;81.88
66880;BME280;53789;51.392;10.234;2022-12-10T01:13:52;97270.06;;;0.20;81.13
66880;BME280;53789;51.392;10.234;2022-12-10T01:14:16;97271.13;;;0.19;82.64
66880;BME280;53789;51.392;10.234;2022-12-10T01:14:37;97261.94;;;0.20;82.47
66880;BME280;53789;51.392;10.234;2022-12-10T01:14:57;97270.84;;;0.20;81.67
66880;BME280;53789;51.392;10.234;2022-12-10T01:15:17;97266.25;;;0.21;82.60
66880;BME280;53789;51.392;10.234;2022-12-10T01:15:38;97272.50;;;0.21;81.60
66880;BME280;53789;51.392;10.234;2022-12-10T01:16:03;97271.41;;;0.22;82.23
66880;BME280;53789;51.392;10.234;2022-12-10T01:16:24;97268.69;;;0.22;81.66
66880;BME280;53789;51.392;10.234;2022-12-10T01:16:45;97265.72;;;0.24;82.94
66880;BME280;53789;51.392;10.234;2022-12-10T01:17:06;97273.03;;;0.23;81.92
66880;BME280;53789;51.392;10.234;2022-12-10T01:17:27;97270.34;;;0.23;81.40
66880;BME280;53789;51.392;10.234;2022-12-10T01:17:47;97267.63;;;0.23;82.43
66880;BME280;53789;51.392;10.234;2022-12-10T01:18:07;97274.66;;;0.25;81.86
66880;BME280;53789;51.392;10.234;2022-12-10T01:18:28;97268.16;;;0.26;82.21
66880;BME280;53789;51.392;10.234;2022-12-10T01:18:49;97268.16;;;0.26;81.70
66880;BME280;53789;51.392;10.234;2022-12-10T01:19:10;97268.16;;;0.26;81.96
66880;BME280;53789;51.392;10.234;2022-12-10T01:19:32;97272.78;;;0.25;82.44
66880;BME280;53789;51.392;10.234;2022-12-10T01:19:52;97269.81;;;0.27;81.46
66880;BME280;53789;51.392;10.234;2022-12-10T01:20:13;97273.31;;;0.27;81.30
66880;BME280;53789;51.392;10.234;2022-12-10T01:20:35;97273.31;;;0.27;81.25
66880;BME280;53789;51.392;10.234;2022-12-10T01:21:00;97273.31;;;0.27;81.59
66880;BME280;53789;51.392;10.234;2022-12-10T01:21:21;97277.66;;;0.28;81.99
66880;BME280;53789;51.392;10.234;2022-12-10T01:21:42;97268.72;;;0.28;82.56
66880;BME280;53789;51.392;10.234;2022-12-10T01:22:03;97273.88;;;0.29;81.75
66880;BME280;53789;51.392;10.234;2022-12-10T01:22:23;97271.97;;;0.30;82.29
66880;BME280;53789;51.392;10.234;2022-12-10T01:22:43;97263.88;;;0.30;82.85
66880;BME280;53789;51.392;10.234;2022-12-10T01:23:03;97265.50;;;0.31;82.52
66880;BME280;53789;51.392;10.234;2022-12-10T01:23:24;97271.72;;;0.31;81.51
66880;BME280;53789;51.392;10.234;2022-12-10T01:23:46;97276.06;;;0.32;82.75
66880;BME280;53789;51.392;10.234;2022-12-10T01:24:07;97279.56;;;0.33;81.59
66880;BME280;53789;51.392;10.234;2022-12-10T01:24:28;97276.84;;;0.33;81.55
66880;BME280;53789;51.392;10.234;2022-12-10T01:24:49;97273.09;;;0.34;82.30
66880;BME280;53789;51.392;10.234;2022-12-10T01:25:09;97275.53;;;0.35;82.61
66880;BME280;53789;51.392;10.234;2022-12-10T01:25:30;97275.53;;;0.35;82.67
66880;BME280;53789;51.392;10.234;2022-12-10T01:25:50;97281.47;;;0.37;82.61
66880;BME280;53789;51.392;10.234;2022-12-10T01:26:13;97272.56;;;0.37;82.28
66880;BME280;53789;51.392;10.234;2022-12-10T01:26:35;97276.06;;;0.37;82.42
66880;BME280;53789;51.392;10.234;2022-12-10T01:26:56;97274.19;;;0.38;82.63
66880;BME280;53789;51.392;10.234;2022-12-10T01:27:17;97278.50;;;0.39;82.67
66880;BME280;53789;51.392;10.234;2022-12-10T01:27:37;97285.56;;;0.40;82.34
66880;BME280;53789;51.392;10.234;2022-12-10T01:27:57;97281.78;;;0.41;81.75
66880;BME280;53789;51.392;10.234;2022-12-10T01:28:18;97279.06;;;0.41;81.36
66880;BME280;53789;51.392;10.234;2022-12-10T01:28:40;97284.47;;;0.41;81.04
66880;BME280;53789;51.392;10.234;2022-12-10T01:29:02;97284.47;;;0.41;81.14
66880;BME280;53789;51.392;10.234;2022-12-10T01:29:23;97280.94;;;0.40;81.90
66880;BME280;53789;51.392;10.234;2022-12-10T01:29:44;97279.06;;;0.41;82.00
66880;BME280;53789;51.392;10.234;2022-12-10T01:30:04;97275.53;;;0.40;82.05
66880;BME280;53789;51.392;10.234;2022-12-10T01:30:25;97279.88;;;0.42;82.45
66880;BME280;53789;51.392;10.234;2022-12-10T01:30:45;97281.50;;;0.43;81.35
66880;BME280;53789;51.392;10.234;2022-12-10T01:31:09;97279.88;;;0.42;81.50
66880;BME280;53789;51.392;10.234;2022-12-10T01:31:35;97283.38;;;0.42;82.71
66880;BME280;53789;51.392;10.234;2022-12-10T01:31:57;97287.72;;;0.43;82.57
66880;BME280;53789;51.392;10.234;2022-12-10T01:32:18;97283.94;;;0.44;82.39
66880;BME280;53789;51.392;10.234;2022-12-10T01:32:38;97289.38;;;0.44;82.11
66880;BME280;53789;51.392;10.234;2022-12-10T01:32:58;97280.41;;;0.44;82.33
66880;BME280;53789;51.392;10.234;2022-12-10T01:33:18;97283.13;;;0.44;82.28
66880;BME280;53789;51.392;10.234;2022-12-10T01:33:40;97287.47;;;0.45;82.49
66880;BME280;53789;51.392;10.234;2022-12-10T01:34:00;97283.94;;;0.44;82.54
66880;BME280;53789;51.392;10.234;2022-12-10T01:34:21;97281.78;;;0.46;81.43
66880;BME280;53789;51.392;10.234;2022-12-10T01:34:41;97285.31;;;0.47;81.20
66880;BME280;53789;51.392;10.234;2022-12-10T01:35:02;97286.13;;;0.47;81.89
66880;BME280;53789;51.392;10.234;2022-12-10T01:35:22;97287.75;;;0.48;81.76
66880;BME280;53789;51.392;10.234;2022-12-10T01:35:42;97287.75;;;0.48;81.16
66880;BME280;53789;51.392;10.234;2022-12-10T01:36:05;97289.38;;;0.49;82.24
66880;BME280;53789;51.392;10.234;2022-12-10T01:36:38;97290.19;;;0.50;82.17
66880;BME280;53789;51.392;10.234;2022-12-10T01:36:59;97282.88;;;0.50;81.95
66880;BME280;53789;51.392;10.234;2022-12-10T01:37:19;97286.41;;;0.51;81.56
66880;BME280;53789;51.392;10.234;2022-12-10T01:37:39;97283.69;;;0.51;82.56
66880;BME280;53789;51.392;10.234;2022-12-10T01:38:00;97283.69;;;0.51;82.74
66880;BME280;53789;51.392;10.234;2022-12-10T01:38:20;97291.53;;;0.52;82.55
66880;BME280;53789;51.392;10.234;2022-12-10T01:38:41;97288.84;;;0.52;82.00
66880;BME280;53789;51.392;10.234;2022-12-10T01:39:04;97290.75;;;0.52;82.33
66880;BME280;53789;51.392;10.234;2022-12-10T01:39:25;97291.28;;;0.54;82.14
66880;BME280;53789;51.392;10.234;2022-12-10T01:39:45;97295.88;;;0.53;82.19
66880;BME280;53789;51.392;10.234;2022-12-10T01:40:06;97291.84;;;0.56;81.85
66880;BME280;53789;51.392;10.234;2022-12-10T01:40:27;97292.66;;;0.56;81.61
66880;BME280;53789;51.392;10.234;2022-12-10T01:40:48;97291.59;;;0.57;81.25
66880;BME280;53789;51.392;10.234;2022-12-10T01:41:15;97298.63;;;0.58;81.37
66880;BME280;53789;51.392;10.234;2022-12-10T01:41:48;97291.31;;;0.59;82.34
66880;BME280;53789;51.392;10.234;2022-12-10T01:42:12;97294.81;;;0.60;82.48
66880;BME280;53789;51.392;10.234;2022-12-10T01:42:33;97294.81;;;0.60;81.43
66880;BME280;53789;51.392;10.234;2022-12-10T01:42:53;97287.53;;;0.60;81.83
66880;BME280;53789;51.392;10.234;2022-12-10T01:43:15;97296.47;;;0.61;80.87
66880;BME280;53789;51.392;10.234;2022-12-10T01:45:06;97297.00;;;0.63;82.69
66880;BME280;53789;51.392;10.234;2022-12-10T01:45:27;97301.34;;;0.64;82.45
66880;BME280;53789;51.392;10.234;2022-12-10T01:45:48;97305.69;;;0.65;82.41
66880;BME280;53789;51.392;10.234;2022-12-10T01:46:08;97294.03;;;0.64;81.65
66880;BME280;53789;51.392;10.234;2022-12-10T01:46:31;97295.94;;;0.64;81.09
66880;BME280;53789;51.392;10.234;2022-12-10T01:46:54;97296.72;;;0.64;81.30
66880;BME280;53789;51.392;10.234;2022-12-10T01:47:15;97297.56;;;0.65;81.35
66880;BME280;53789;51.392;10.234;2022-12-10T01:47:35;97300.28;;;0.65;81.61
66880;BME280;53789;51.392;10.234;2022-12-10T01:47:56;97299.16;;;0.66;82.50
66880;BME280;53789;51.392;10.234;2022-12-10T01:48:16;97299.16;;;0.66;81.51
66880;BME280;53789;51.392;10.234;2022-12-10T01:48:36;97298.38;;;0.65;80.91
66880;BME280;53789;51.392;10.234;2022-12-10T01:48:58;97301.06;;;0.65;81.65
66880;BME280;53789;51.392;10.234;2022-12-10T01:49:22;97292.16;;;0.65;81.79
66880;BME280;53789;51.392;10.234;2022-12-10T01:49:42;97301.06;;;0.65;81.19
66880;BME280;53789;51.392;10.234;2022-12-10T01:50:05;97293.75;;;0.66;81.45
66880;BME280;53789;51.392;10.234;2022-12-10T01:50:26;97299.16;;;0.66;81.71
66880;BME280;53789;51.392;10.234;2022-12-10T01:50:47;97297.56;;;0.65;81.97
66880;BME280;53789;51.392;10.234;2022-12-10T01:51:08;97294.84;;;0.65;80.53
66880;BME280;53789;51.392;10.234;2022-12-10T01:51:31;97293.75;;;0.66;81.91
66880;BME280;53789;51.392;10.234;2022-12-10T01:51:54;97303.50;;;0.67;82.10
66880;BME280;53789;51.392;10.234;2022-12-10T01:52:15;97300.00;;;0.66;81.47
66880;BME280;53789;51.392;10.234;2022-12-10T01:52:36;97294.59;;;0.66;81.89
66880;BME280;53789;51.392;10.234;2022-12-10T01:52:57;97297.28;;;0.66;81.18
66880;BME280;53789;51.392;10.234;2022-12-10T01:53:17;97301.63;;;0.67;81.51
66880;BME280;53789;51.392;10.234;2022-12-10T01:53:38;97303.50;;;0.67;81.32
66880;BME280;53789;51.392;10.234;2022-12-10T01:53:59;97300.00;;;0.66;81.02
66880;BME280;53789;51.392;10.234;2022-12-10T01:54:24;97299.16;;;0.66;81.67